sensor_id;sensor_type;location;lat;lon;timestamp;P1;durP1;ratioP1;P2;durP2;ratioP2
16199;SDS011;8207;52.494;4.654;2022-12-08T00:02:21;4.93;;;0.60;;
16199;SDS011;8207;52.494;4.654;2022-12-08T00:04:48;8.37;;;0.70;;
16199;SDS011;8207;52.494;4.654;2022-12-08T00:07:34;3.17;;;0.70;;
16199;SDS011;8207;52.494;4.654;2022-12-08T00:10:21;3.30;;;0.87;;
16199;SDS011;8207;52.494;4.654;2022-12-08T00:12:48;3.10;;;1.10;;
16199;SDS011;8207;52.494;4.654;2022-12-08T00:15:15;4.00;;;0.73;;
16199;SDS011;8207;52.494;4.654;2022-12-08T00:17:42;3.47;;;0.60;;
16199;SDS011;8207;52.494;4.654;2022-12-08T00:20:09;1.17;;;0.50;;
16199;SDS011;8207;52.494;4.654;2022-12-08T00:22:37;4.87;;;0.60;;
16199;SDS011;8207;52.494;4.654;2022-12-08T00:25:05;4.57;;;0.67;;
16199;SDS011;8207;52.494;4.654;2022-12-08T00:27:32;5.90;;;0.70;;
16199;SDS011;8207;52.494;4.654;2022-12-08T00:29:59;3.00;;;0.67;;
16199;SDS011;8207;52.494;4.654;2022-12-08T00:32:26;3.77;;;0.80;;
16199;SDS011;8207;52.494;4.654;2022-12-08T00:34:53;3.50;;;0.80;;
16199;SDS011;8207;52.494;4.654;2022-12-08T00:37:19;5.30;;;0.90;;
16199;SDS011;8207;52.494;4.654;2022-12-08T00:39:48;4.73;;;0.80;;
16199;SDS011;8207;52.494;4.654;2022-12-08T00:42:15;5.93;;;0.70;;
16199;SDS011;8207;52.494;4.654;2022-12-08T00:44:42;2.10;;;0.60;;
16199;SDS011;8207;52.494;4.654;2022-12-08T00:47:10;2.93;;;0.60;;
16199;SDS011;8207;52.494;4.654;2022-12-08T00:49:38;2.63;;;0.83;;
16199;SDS011;8207;52.494;4.654;2022-12-08T00:52:05;4.43;;;0.80;;
16199;SDS011;8207;52.494;4.654;2022-12-08T00:54:32;2.90;;;0.77;;
16199;SDS011;8207;52.494;4.654;2022-12-08T00:57:00;4.57;;;1.00;;
16199;SDS011;8207;52.494;4.654;2022-12-08T00:59:27;4.07;;;0.53;;
16199;SDS011;8207;52.494;4.654;2022-12-08T01:01:54;2.13;;;1.30;;
16199;SDS011;8207;52.494;4.654;2022-12-08T01:04:21;2.73;;;0.80;;
16199;SDS011;8207;52.494;4.654;2022-12-08T01:06:48;2.07;;;0.70;;
16199;SDS011;8207;52.494;4.654;2022-12-08T01:09:16;5.93;;;1.30;;
16199;SDS011;8207;52.494;4.654;2022-12-08T01:11:43;5.40;;;0.90;;
16199;SDS011;8207;52.494;4.654;2022-12-08T01:14:12;2.30;;;0.70;;
16199;SDS011;8207;52.494;4.654;2022-12-08T01:16:39;7.23;;;1.03;;
16199;SDS011;8207;52.494;4.654;2022-12-08T01:19:08;4.47;;;1.33;;
16199;SDS011;8207;52.494;4.654;2022-12-08T01:21:36;8.60;;;1.40;;
16199;SDS011;8207;52.494;4.654;2022-12-08T01:24:03;8.87;;;1.53;;
16199;SDS011;8207;52.494;4.654;2022-12-08T01:26:30;5.53;;;0.97;;
16199;SDS011;8207;52.494;4.654;2022-12-08T01:28:57;3.60;;;0.93;;
16199;SDS011;8207;52.494;4.654;2022-12-08T01:31:26;5.37;;;1.07;;
16199;SDS011;8207;52.494;4.654;2022-12-08T01:33:52;1.50;;;0.50;;
16199;SDS011;8207;52.494;4.654;2022-12-08T01:36:20;1.97;;;0.77;;
16199;SDS011;8207;52.494;4.654;2022-12-08T01:38:48;3.53;;;0.73;;
16199;SDS011;8207;52.494;4.654;2022-12-08T01:41:16;4.70;;;0.83;;
16199;SDS011;8207;52.494;4.654;2022-12-08T01:43:49;2.23;;;1.00;;
16199;SDS011;8207;52.494;4.654;2022-12-08T01:46:30;3.70;;;0.80;;
16199;SDS011;8207;52.494;4.654;2022-12-08T01:49:00;4.50;;;0.97;;
16199;SDS011;8207;52.494;4.654;2022-12-08T01:51:45;4.23;;;0.90;;
16199;SDS011;8207;52.494;4.654;2022-12-08T01:54:16;6.30;;;1.17;;
16199;SDS011;8207;52.494;4.654;2022-12-08T01:56:47;2.90;;;0.90;;
16199;SDS011;8207;52.494;4.654;2022-12-08T01:59:17;4.37;;;1.20;;
16199;SDS011;8207;52.494;4.654;2022-12-08T02:01:46;3.10;;;1.00;;
16199;SDS011;8207;52.494;4.654;2022-12-08T02:04:13;3.57;;;0.80;;
16199;SDS011;8207;52.494;4.654;2022-12-08T02:06:41;2.17;;;0.90;;
16199;SDS011;8207;52.494;4.654;2022-12-08T02:09:10;2.87;;;0.80;;
16199;SDS011;8207;52.494;4.654;2022-12-08T02:11:37;5.17;;;1.37;;
16199;SDS011;8207;52.494;4.654;2022-12-08T02:14:05;3.93;;;0.97;;
16199;SDS011;8207;52.494;4.654;2022-12-08T02:16:34;5.27;;;0.80;;
16199;SDS011;8207;52.494;4.654;2022-12-08T02:22:03;4.57;;;0.80;;
16199;SDS011;8207;52.494;4.654;2022-12-08T02:24:37;6.53;;;2.03;;
16199;SDS011;8207;52.494;4.654;2022-12-08T02:27:21;6.50;;;0.97;;
16199;SDS011;8207;52.494;4.654;2022-12-08T02:30:04;6.70;;;0.97;;
16199;SDS011;8207;52.494;4.654;2022-12-08T02:32:44;5.43;;;1.20;;
16199;SDS011;8207;52.494;4.654;2022-12-08T02:35:32;6.93;;;1.40;;
16199;SDS011;8207;52.494;4.654;2022-12-08T02:38:05;3.83;;;1.20;;
16199;SDS011;8207;52.494;4.654;2022-12-08T02:40:38;4.33;;;0.97;;
16199;SDS011;8207;52.494;4.654;2022-12-08T02:43:15;2.97;;;0.63;;
16199;SDS011;8207;52.494;4.654;2022-12-08T02:45:48;4.00;;;1.00;;
16199;SDS011;8207;52.494;4.654;2022-12-08T02:48:17;5.63;;;0.97;;
16199;SDS011;8207;52.494;4.654;2022-12-08T02:50:45;2.50;;;0.80;;
16199;SDS011;8207;52.494;4.654;2022-12-08T02:53:12;3.50;;;0.97;;
16199;SDS011;8207;52.494;4.654;2022-12-08T02:55:41;4.87;;;1.07;;
16199;SDS011;8207;52.494;4.654;2022-12-08T02:58:28;2.67;;;0.60;;
16199;SDS011;8207;52.494;4.654;2022-12-08T03:01:22;2.73;;;0.60;;
16199;SDS011;8207;52.494;4.654;2022-12-08T03:04:01;2.37;;;0.63;;
16199;SDS011;8207;52.494;4.654;2022-12-08T03:06:37;6.07;;;1.00;;
16199;SDS011;8207;52.494;4.654;2022-12-08T03:09:13;4.83;;;0.97;;
16199;SDS011;8207;52.494;4.654;2022-12-08T03:11:48;3.37;;;0.97;;
16199;SDS011;8207;52.494;4.654;2022-12-08T03:14:21;4.03;;;0.93;;
16199;SDS011;8207;52.494;4.654;2022-12-08T03:16:48;4.30;;;1.10;;
16199;SDS011;8207;52.494;4.654;2022-12-08T03:19:21;2.83;;;0.97;;
16199;SDS011;8207;52.494;4.654;2022-12-08T03:21:53;7.07;;;1.10;;
16199;SDS011;8207;52.494;4.654;2022-12-08T03:24:27;2.80;;;0.80;;
16199;SDS011;8207;52.494;4.654;2022-12-08T03:26:58;6.67;;;0.87;;
16199;SDS011;8207;52.494;4.654;2022-12-08T03:29:29;9.00;;;1.10;;
16199;SDS011;8207;52.494;4.654;2022-12-08T03:31:58;10.23;;;1.47;;
16199;SDS011;8207;52.494;4.654;2022-12-08T03:34:31;5.67;;;1.07;;
16199;SDS011;8207;52.494;4.654;2022-12-08T03:37:00;7.27;;;1.60;;
16199;SDS011;8207;52.494;4.654;2022-12-08T03:39:27;5.53;;;1.20;;
16199;SDS011;8207;52.494;4.654;2022-12-08T03:41:54;3.57;;;0.93;;
16199;SDS011;8207;52.494;4.654;2022-12-08T03:44:21;5.30;;;0.87;;
16199;SDS011;8207;52.494;4.654;2022-12-08T03:46:48;4.67;;;0.83;;
16199;SDS011;8207;52.494;4.654;2022-12-08T03:49:15;2.23;;;0.73;;
16199;SDS011;8207;52.494;4.654;2022-12-08T03:51:41;5.40;;;0.87;;
16199;SDS011;8207;52.494;4.654;2022-12-08T03:54:10;3.17;;;0.80;;
16199;SDS011;8207;52.494;4.654;2022-12-08T03:56:37;3.03;;;0.60;;
16199;SDS011;8207;52.494;4.654;2022-12-08T03:59:05;3.73;;;0.80;;
16199;SDS011;8207;52.494;4.654;2022-12-08T04:01:33;3.80;;;0.83;;
16199;SDS011;8207;52.494;4.654;2022-12-08T04:04:00;4.33;;;0.80;;
16199;SDS011;8207;52.494;4.654;2022-12-08T04:06:27;2.93;;;0.67;;
16199;SDS011;8207;52.494;4.654;2022-12-08T04:08:54;2.20;;;0.67;;
16199;SDS011;8207;52.494;4.654;2022-12-08T04:11:22;2.23;;;0.70;;
16199;SDS011;8207;52.494;4.654;2022-12-08T04:13:49;2.30;;;0.70;;
16199;SDS011;8207;52.494;4.654;2022-12-08T04:16:17;5.50;;;0.93;;
16199;SDS011;8207;52.494;4.654;2022-12-08T04:18:45;3.70;;;0.90;;
16199;SDS011;8207;52.494;4.654;2022-12-08T04:21:12;3.77;;;0.60;;
16199;SDS011;8207;52.494;4.654;2022-12-08T04:23:39;4.17;;;1.07;;
16199;SDS011;8207;52.494;4.654;2022-12-08T04:26:06;1.63;;;0.53;;
16199;SDS011;8207;52.494;4.654;2022-12-08T04:28:36;3.23;;;0.60;;
16199;SDS011;8207;52.494;4.654;2022-12-08T04:31:03;2.37;;;0.67;;
16199;SDS011;8207;52.494;4.654;2022-12-08T04:33:30;2.07;;;0.40;;
16199;SDS011;8207;52.494;4.654;2022-12-08T04:35:59;1.50;;;0.60;;
16199;SDS011;8207;52.494;4.654;2022-12-08T04:38:26;1.47;;;0.60;;
16199;SDS011;8207;52.494;4.654;2022-12-08T04:40:53;2.63;;;0.80;;
16199;SDS011;8207;52.494;4.654;2022-12-08T04:43:20;2.63;;;1.03;;
16199;SDS011;8207;52.494;4.654;2022-12-08T04:45:48;2.00;;;0.70;;
16199;SDS011;8207;52.494;4.654;2022-12-08T04:48:15;4.37;;;0.73;;
16199;SDS011;8207;52.494;4.654;2022-12-08T04:50:43;4.10;;;0.90;;
16199;SDS011;8207;52.494;4.654;2022-12-08T04:53:10;6.07;;;0.80;;
16199;SDS011;8207;52.494;4.654;2022-12-08T04:55:38;3.70;;;0.80;;
16199;SDS011;8207;52.494;4.654;2022-12-08T04:58:05;3.23;;;0.63;;
16199;SDS011;8207;52.494;4.654;2022-12-08T05:00:32;1.80;;;0.47;;
16199;SDS011;8207;52.494;4.654;2022-12-08T05:03:01;0.33;;;0.33;;
16199;SDS011;8207;52.494;4.654;2022-12-08T05:05:27;0.40;;;0.30;;
16199;SDS011;8207;52.494;4.654;2022-12-08T05:07:54;1.67;;;0.50;;
16199;SDS011;8207;52.494;4.654;2022-12-08T05:10:21;0.80;;;0.40;;
16199;SDS011;8207;52.494;4.654;2022-12-08T05:12:48;0.63;;;0.47;;
16199;SDS011;8207;52.494;4.654;2022-12-08T05:15:15;1.40;;;0.30;;
16199;SDS011;8207;52.494;4.654;2022-12-08T05:17:42;2.77;;;0.90;;
16199;SDS011;8207;52.494;4.654;2022-12-08T05:20:11;1.03;;;0.30;;
16199;SDS011;8207;52.494;4.654;2022-12-08T05:22:38;1.67;;;0.40;;
16199;SDS011;8207;52.494;4.654;2022-12-08T05:25:05;0.30;;;0.30;;
16199;SDS011;8207;52.494;4.654;2022-12-08T05:27:32;3.03;;;0.50;;
16199;SDS011;8207;52.494;4.654;2022-12-08T05:29:59;0.80;;;0.40;;
16199;SDS011;8207;52.494;4.654;2022-12-08T05:32:26;0.57;;;0.33;;
16199;SDS011;8207;52.494;4.654;2022-12-08T05:34:53;0.87;;;0.50;;
16199;SDS011;8207;52.494;4.654;2022-12-08T05:37:21;0.40;;;0.33;;
16199;SDS011;8207;52.494;4.654;2022-12-08T05:39:48;2.00;;;0.83;;
16199;SDS011;8207;52.494;4.654;2022-12-08T05:42:15;0.40;;;0.40;;
16199;SDS011;8207;52.494;4.654;2022-12-08T05:44:42;1.60;;;0.50;;
16199;SDS011;8207;52.494;4.654;2022-12-08T05:47:09;1.23;;;0.50;;
16199;SDS011;8207;52.494;4.654;2022-12-08T05:49:36;0.70;;;0.63;;
16199;SDS011;8207;52.494;4.654;2022-12-08T05:52:03;2.50;;;0.90;;
16199;SDS011;8207;52.494;4.654;2022-12-08T05:54:31;0.80;;;0.70;;
16199;SDS011;8207;52.494;4.654;2022-12-08T05:56:58;3.33;;;1.20;;
16199;SDS011;8207;52.494;4.654;2022-12-08T05:59:25;0.90;;;0.70;;
16199;SDS011;8207;52.494;4.654;2022-12-08T06:01:52;1.00;;;0.87;;
16199;SDS011;8207;52.494;4.654;2022-12-08T06:04:19;1.30;;;0.70;;
16199;SDS011;8207;52.494;4.654;2022-12-08T06:06:46;2.17;;;0.93;;
16199;SDS011;8207;52.494;4.654;2022-12-08T06:09:13;1.83;;;1.10;;
16199;SDS011;8207;52.494;4.654;2022-12-08T06:11:41;2.00;;;1.17;;
16199;SDS011;8207;52.494;4.654;2022-12-08T06:14:10;1.47;;;1.17;;
16199;SDS011;8207;52.494;4.654;2022-12-08T06:16:37;1.67;;;0.90;;
16199;SDS011;8207;52.494;4.654;2022-12-08T06:19:04;3.60;;;0.93;;
16199;SDS011;8207;52.494;4.654;2022-12-08T06:21:31;1.87;;;1.10;;
16199;SDS011;8207;52.494;4.654;2022-12-08T06:23:58;1.67;;;1.13;;
16199;SDS011;8207;52.494;4.654;2022-12-08T06:26:25;3.23;;;1.53;;
16199;SDS011;8207;52.494;4.654;2022-12-08T06:28:54;3.10;;;2.20;;
16199;SDS011;8207;52.494;4.654;2022-12-08T06:31:22;4.40;;;1.20;;
16199;SDS011;8207;52.494;4.654;2022-12-08T06:33:50;4.00;;;1.20;;
16199;SDS011;8207;52.494;4.654;2022-12-08T06:36:17;1.77;;;0.83;;
16199;SDS011;8207;52.494;4.654;2022-12-08T06:38:47;3.37;;;1.00;;
16199;SDS011;8207;52.494;4.654;2022-12-08T06:41:15;6.10;;;1.40;;
16199;SDS011;8207;52.494;4.654;2022-12-08T06:43:42;2.67;;;1.07;;
16199;SDS011;8207;52.494;4.654;2022-12-08T06:46:12;5.00;;;2.13;;
16199;SDS011;8207;52.494;4.654;2022-12-08T06:48:40;2.10;;;1.03;;
16199;SDS011;8207;52.494;4.654;2022-12-08T06:51:07;1.70;;;0.80;;
16199;SDS011;8207;52.494;4.654;2022-12-08T06:53:36;5.60;;;1.07;;
16199;SDS011;8207;52.494;4.654;2022-12-08T06:56:03;3.67;;;1.17;;
16199;SDS011;8207;52.494;4.654;2022-12-08T06:58:32;2.93;;;1.40;;
16199;SDS011;8207;52.494;4.654;2022-12-08T07:01:02;1.87;;;0.97;;
16199;SDS011;8207;52.494;4.654;2022-12-08T07:03:32;2.93;;;1.00;;
16199;SDS011;8207;52.494;4.654;2022-12-08T07:05:59;2.27;;;0.97;;
16199;SDS011;8207;52.494;4.654;2022-12-08T07:08:26;1.67;;;0.80;;
16199;SDS011;8207;52.494;4.654;2022-12-08T07:10:53;1.97;;;1.00;;
16199;SDS011;8207;52.494;4.654;2022-12-08T07:13:20;2.77;;;0.93;;
16199;SDS011;8207;52.494;4.654;2022-12-08T07:15:47;3.13;;;0.80;;
16199;SDS011;8207;52.494;4.654;2022-12-08T07:18:14;4.17;;;1.00;;
16199;SDS011;8207;52.494;4.654;2022-12-08T07:20:42;2.40;;;0.97;;
16199;SDS011;8207;52.494;4.654;2022-12-08T07:23:09;1.43;;;1.00;;
16199;SDS011;8207;52.494;4.654;2022-12-08T07:25:36;1.53;;;0.90;;
16199;SDS011;8207;52.494;4.654;2022-12-08T07:28:06;1.93;;;0.90;;
16199;SDS011;8207;52.494;4.654;2022-12-08T07:30:37;3.00;;;1.30;;
16199;SDS011;8207;52.494;4.654;2022-12-08T07:33:04;8.23;;;1.83;;
16199;SDS011;8207;52.494;4.654;2022-12-08T07:35:31;6.97;;;1.50;;
16199;SDS011;8207;52.494;4.654;2022-12-08T07:37:59;5.60;;;1.20;;
16199;SDS011;8207;52.494;4.654;2022-12-08T07:40:26;3.00;;;0.93;;
16199;SDS011;8207;52.494;4.654;2022-12-08T07:42:53;5.70;;;1.10;;
16199;SDS011;8207;52.494;4.654;2022-12-08T07:45:20;4.53;;;1.30;;
16199;SDS011;8207;52.494;4.654;2022-12-08T07:47:47;3.03;;;1.07;;
16199;SDS011;8207;52.494;4.654;2022-12-08T07:50:13;1.73;;;0.80;;
16199;SDS011;8207;52.494;4.654;2022-12-08T07:52:41;2.83;;;1.23;;
16199;SDS011;8207;52.494;4.654;2022-12-08T07:55:09;4.27;;;2.27;;
16199;SDS011;8207;52.494;4.654;2022-12-08T07:57:36;6.00;;;2.07;;
16199;SDS011;8207;52.494;4.654;2022-12-08T08:00:03;4.07;;;1.73;;
16199;SDS011;8207;52.494;4.654;2022-12-08T08:02:31;4.17;;;2.07;;
16199;SDS011;8207;52.494;4.654;2022-12-08T08:04:58;4.10;;;1.53;;
16199;SDS011;8207;52.494;4.654;2022-12-08T08:07:25;2.70;;;1.27;;
16199;SDS011;8207;52.494;4.654;2022-12-08T08:09:52;3.77;;;1.80;;
16199;SDS011;8207;52.494;4.654;2022-12-08T08:12:21;6.93;;;1.97;;
16199;SDS011;8207;52.494;4.654;2022-12-08T08:14:47;2.30;;;1.23;;
16199;SDS011;8207;52.494;4.654;2022-12-08T08:17:16;3.53;;;1.10;;
16199;SDS011;8207;52.494;4.654;2022-12-08T08:19:44;4.30;;;1.30;;
16199;SDS011;8207;52.494;4.654;2022-12-08T08:22:11;4.63;;;1.90;;
16199;SDS011;8207;52.494;4.654;2022-12-08T08:24:38;3.27;;;0.83;;
16199;SDS011;8207;52.494;4.654;2022-12-08T08:27:05;2.97;;;0.70;;
16199;SDS011;8207;52.494;4.654;2022-12-08T08:29:33;4.13;;;0.80;;
16199;SDS011;8207;52.494;4.654;2022-12-08T08:32:00;2.90;;;0.77;;
16199;SDS011;8207;52.494;4.654;2022-12-08T08:34:27;4.23;;;0.77;;
16199;SDS011;8207;52.494;4.654;2022-12-08T08:36:54;5.23;;;0.90;;
16199;SDS011;8207;52.494;4.654;2022-12-08T08:39:21;2.13;;;1.00;;
16199;SDS011;8207;52.494;4.654;2022-12-08T08:41:47;2.33;;;1.40;;
16199;SDS011;8207;52.494;4.654;2022-12-08T08:44:14;1.53;;;0.87;;
16199;SDS011;8207;52.494;4.654;2022-12-08T08:46:43;3.20;;;0.87;;
16199;SDS011;8207;52.494;4.654;2022-12-08T08:49:09;1.73;;;0.90;;
16199;SDS011;8207;52.494;4.654;2022-12-08T08:51:36;1.70;;;0.70;;
16199;SDS011;8207;52.494;4.654;2022-12-08T08:54:03;3.30;;;1.20;;
16199;SDS011;8207;52.494;4.654;2022-12-08T08:56:30;1.30;;;0.80;;
16199;SDS011;8207;52.494;4.654;2022-12-08T08:58:57;3.10;;;0.80;;
16199;SDS011;8207;52.494;4.654;2022-12-08T09:01:25;2.80;;;1.10;;
16199;SDS011;8207;52.494;4.654;2022-12-08T09:03:54;1.87;;;1.00;;
16199;SDS011;8207;52.494;4.654;2022-12-08T09:06:22;2.30;;;0.90;;
16199;SDS011;8207;52.494;4.654;2022-12-08T09:08:49;1.53;;;0.73;;
16199;SDS011;8207;52.494;4.654;2022-12-08T09:11:16;4.20;;;0.90;;
16199;SDS011;8207;52.494;4.654;2022-12-08T09:13:43;4.13;;;1.10;;
16199;SDS011;8207;52.494;4.654;2022-12-08T09:16:12;3.50;;;1.13;;
16199;SDS011;8207;52.494;4.654;2022-12-08T09:18:39;2.13;;;1.23;;
16199;SDS011;8207;52.494;4.654;2022-12-08T09:21:09;3.13;;;1.40;;
16199;SDS011;8207;52.494;4.654;2022-12-08T09:23:39;4.47;;;2.47;;
16199;SDS011;8207;52.494;4.654;2022-12-08T09:26:06;3.73;;;1.90;;
16199;SDS011;8207;52.494;4.654;2022-12-08T09:28:33;3.30;;;1.67;;
16199;SDS011;8207;52.494;4.654;2022-12-08T09:31:00;7.27;;;1.60;;
16199;SDS011;8207;52.494;4.654;2022-12-08T09:33:27;4.33;;;1.20;;
16199;SDS011;8207;52.494;4.654;2022-12-08T09:35:54;6.13;;;2.37;;
16199;SDS011;8207;52.494;4.654;2022-12-08T09:38:23;3.37;;;1.30;;
16199;SDS011;8207;52.494;4.654;2022-12-08T09:40:50;3.57;;;1.83;;
16199;SDS011;8207;52.494;4.654;2022-12-08T09:43:23;5.67;;;1.30;;
16199;SDS011;8207;52.494;4.654;2022-12-08T09:46:07;4.27;;;1.50;;
16199;SDS011;8207;52.494;4.654;2022-12-08T09:48:39;2.20;;;1.30;;
16199;SDS011;8207;52.494;4.654;2022-12-08T09:51:09;6.37;;;2.63;;
16199;SDS011;8207;52.494;4.654;2022-12-08T09:53:41;2.63;;;1.60;;
16199;SDS011;8207;52.494;4.654;2022-12-08T09:56:12;5.50;;;1.63;;
16199;SDS011;8207;52.494;4.654;2022-12-08T09:58:44;3.93;;;1.40;;
16199;SDS011;8207;52.494;4.654;2022-12-08T10:01:17;2.90;;;1.57;;
16199;SDS011;8207;52.494;4.654;2022-12-08T10:03:45;4.37;;;1.63;;
16199;SDS011;8207;52.494;4.654;2022-12-08T10:06:14;5.97;;;1.83;;
16199;SDS011;8207;52.494;4.654;2022-12-08T10:08:49;4.03;;;1.87;;
16199;SDS011;8207;52.494;4.654;2022-12-08T10:11:26;6.47;;;2.23;;
16199;SDS011;8207;52.494;4.654;2022-12-08T10:13:58;2.90;;;1.97;;
16199;SDS011;8207;52.494;4.654;2022-12-08T10:16:35;7.27;;;2.73;;
16199;SDS011;8207;52.494;4.654;2022-12-08T10:19:10;3.50;;;1.53;;
16199;SDS011;8207;52.494;4.654;2022-12-08T10:21:39;4.13;;;1.70;;
16199;SDS011;8207;52.494;4.654;2022-12-08T10:24:11;6.23;;;2.73;;
16199;SDS011;8207;52.494;4.654;2022-12-08T10:26:44;3.83;;;1.73;;
16199;SDS011;8207;52.494;4.654;2022-12-08T10:29:12;3.03;;;1.20;;
16199;SDS011;8207;52.494;4.654;2022-12-08T10:31:40;3.80;;;1.40;;
16199;SDS011;8207;52.494;4.654;2022-12-08T10:34:14;5.80;;;1.07;;
16199;SDS011;8207;52.494;4.654;2022-12-08T10:36:44;5.13;;;1.53;;
16199;SDS011;8207;52.494;4.654;2022-12-08T10:42:07;5.30;;;1.40;;
16199;SDS011;8207;52.494;4.654;2022-12-08T10:44:48;3.97;;;1.30;;
16199;SDS011;8207;52.494;4.654;2022-12-08T10:47:19;3.83;;;1.90;;
16199;SDS011;8207;52.494;4.654;2022-12-08T10:49:52;3.83;;;1.40;;
16199;SDS011;8207;52.494;4.654;2022-12-08T10:52:42;4.43;;;1.20;;
16199;SDS011;8207;52.494;4.654;2022-12-08T10:55:14;2.97;;;1.20;;
16199;SDS011;8207;52.494;4.654;2022-12-08T10:57:42;4.07;;;1.60;;
16199;SDS011;8207;52.494;4.654;2022-12-08T11:00:12;4.63;;;1.30;;
16199;SDS011;8207;52.494;4.654;2022-12-08T11:02:54;3.53;;;1.53;;
16199;SDS011;8207;52.494;4.654;2022-12-08T11:05:26;5.10;;;1.30;;
16199;SDS011;8207;52.494;4.654;2022-12-08T11:07:56;5.13;;;1.40;;
16199;SDS011;8207;52.494;4.654;2022-12-08T11:10:28;3.13;;;1.10;;
16199;SDS011;8207;52.494;4.654;2022-12-08T11:13:01;3.47;;;1.33;;
16199;SDS011;8207;52.494;4.654;2022-12-08T11:15:31;4.37;;;1.70;;
16199;SDS011;8207;52.494;4.654;2022-12-08T11:18:01;2.93;;;1.60;;
16199;SDS011;8207;52.494;4.654;2022-12-08T11:20:37;5.33;;;1.73;;
16199;SDS011;8207;52.494;4.654;2022-12-08T11:23:16;3.63;;;1.60;;
16199;SDS011;8207;52.494;4.654;2022-12-08T11:25:45;3.80;;;1.80;;
16199;SDS011;8207;52.494;4.654;2022-12-08T11:28:13;4.17;;;1.37;;
16199;SDS011;8207;52.494;4.654;2022-12-08T11:30:45;4.23;;;1.87;;
16199;SDS011;8207;52.494;4.654;2022-12-08T11:33:15;4.60;;;2.30;;
16199;SDS011;8207;52.494;4.654;2022-12-08T11:35:45;1.70;;;1.60;;
16199;SDS011;8207;52.494;4.654;2022-12-08T11:38:17;2.33;;;1.50;;
16199;SDS011;8207;52.494;4.654;2022-12-08T11:40:49;3.73;;;1.97;;
16199;SDS011;8207;52.494;4.654;2022-12-08T11:43:20;4.87;;;1.70;;
16199;SDS011;8207;52.494;4.654;2022-12-08T11:45:54;2.97;;;2.03;;
16199;SDS011;8207;52.494;4.654;2022-12-08T11:48:25;8.37;;;2.13;;
16199;SDS011;8207;52.494;4.654;2022-12-08T11:50:56;3.87;;;2.53;;
16199;SDS011;8207;52.494;4.654;2022-12-08T11:53:26;4.47;;;2.23;;
16199;SDS011;8207;52.494;4.654;2022-12-08T11:55:59;4.90;;;2.50;;
16199;SDS011;8207;52.494;4.654;2022-12-08T11:58:34;4.23;;;2.00;;
16199;SDS011;8207;52.494;4.654;2022-12-08T12:01:04;4.33;;;2.37;;
16199;SDS011;8207;52.494;4.654;2022-12-08T12:03:32;3.40;;;2.13;;
16199;SDS011;8207;52.494;4.654;2022-12-08T12:06:16;5.00;;;2.10;;
16199;SDS011;8207;52.494;4.654;2022-12-08T12:09:01;4.17;;;2.00;;
16199;SDS011;8207;52.494;4.654;2022-12-08T12:11:38;2.73;;;1.90;;
16199;SDS011;8207;52.494;4.654;2022-12-08T12:14:37;5.80;;;2.37;;
16199;SDS011;8207;52.494;4.654;2022-12-08T12:17:24;3.17;;;2.00;;
16199;SDS011;8207;52.494;4.654;2022-12-08T12:20:03;8.03;;;2.33;;
16199;SDS011;8207;52.494;4.654;2022-12-08T12:22:38;4.13;;;1.30;;
16199;SDS011;8207;52.494;4.654;2022-12-08T12:25:14;3.50;;;1.20;;
16199;SDS011;8207;52.494;4.654;2022-12-08T12:27:45;2.53;;;1.10;;
16199;SDS011;8207;52.494;4.654;2022-12-08T12:30:17;3.93;;;1.10;;
16199;SDS011;8207;52.494;4.654;2022-12-08T12:32:47;3.17;;;1.10;;
16199;SDS011;8207;52.494;4.654;2022-12-08T12:35:20;2.93;;;1.40;;
16199;SDS011;8207;52.494;4.654;2022-12-08T12:37:55;2.67;;;1.00;;
16199;SDS011;8207;52.494;4.654;2022-12-08T12:40:25;1.57;;;1.10;;
16199;SDS011;8207;52.494;4.654;2022-12-08T12:51:58;4.43;;;1.87;;
16199;SDS011;8207;52.494;4.654;2022-12-08T12:54:25;4.17;;;1.63;;
16199;SDS011;8207;52.494;4.654;2022-12-08T12:56:54;5.97;;;1.63;;
16199;SDS011;8207;52.494;4.654;2022-12-08T12:59:43;6.37;;;2.17;;
16199;SDS011;8207;52.494;4.654;2022-12-08T13:02:16;7.27;;;1.53;;
16199;SDS011;8207;52.494;4.654;2022-12-08T13:04:51;4.23;;;1.70;;
16199;SDS011;8207;52.494;4.654;2022-12-08T13:07:29;7.70;;;2.30;;
16199;SDS011;8207;52.494;4.654;2022-12-08T13:09:59;3.53;;;1.20;;
16199;SDS011;8207;52.494;4.654;2022-12-08T13:12:36;4.53;;;2.13;;
16199;SDS011;8207;52.494;4.654;2022-12-08T13:15:05;5.70;;;2.90;;
16199;SDS011;8207;52.494;4.654;2022-12-08T13:17:43;6.63;;;2.83;;
16199;SDS011;8207;52.494;4.654;2022-12-08T13:20:16;5.77;;;2.80;;
16199;SDS011;8207;52.494;4.654;2022-12-08T13:23:02;4.23;;;3.00;;
16199;SDS011;8207;52.494;4.654;2022-12-08T13:31:47;3.47;;;2.90;;
16199;SDS011;8207;52.494;4.654;2022-12-08T13:34:16;8.00;;;3.47;;
16199;SDS011;8207;52.494;4.654;2022-12-08T13:36:50;2.80;;;2.50;;
16199;SDS011;8207;52.494;4.654;2022-12-08T13:39:24;4.13;;;2.70;;
16199;SDS011;8207;52.494;4.654;2022-12-08T13:41:57;3.73;;;3.30;;
16199;SDS011;8207;52.494;4.654;2022-12-08T13:44:30;4.47;;;3.40;;
16199;SDS011;8207;52.494;4.654;2022-12-08T13:47:04;3.53;;;3.23;;
16199;SDS011;8207;52.494;4.654;2022-12-08T13:49:35;6.20;;;4.30;;
16199;SDS011;8207;52.494;4.654;2022-12-08T13:52:10;4.60;;;4.20;;
16199;SDS011;8207;52.494;4.654;2022-12-08T13:54:42;6.87;;;4.87;;
16199;SDS011;8207;52.494;4.654;2022-12-08T13:57:13;7.23;;;5.33;;
16199;SDS011;8207;52.494;4.654;2022-12-08T13:59:53;7.17;;;5.07;;
16199;SDS011;8207;52.494;4.654;2022-12-08T14:02:29;8.13;;;4.60;;
16199;SDS011;8207;52.494;4.654;2022-12-08T14:04:59;5.73;;;4.13;;
16199;SDS011;8207;52.494;4.654;2022-12-08T14:07:27;4.33;;;3.23;;
16199;SDS011;8207;52.494;4.654;2022-12-08T14:09:54;4.77;;;2.60;;
16199;SDS011;8207;52.494;4.654;2022-12-08T14:12:21;7.17;;;2.37;;
16199;SDS011;8207;52.494;4.654;2022-12-08T14:14:51;5.17;;;2.43;;
16199;SDS011;8207;52.494;4.654;2022-12-08T14:17:20;4.17;;;3.07;;
16199;SDS011;8207;52.494;4.654;2022-12-08T14:19:53;4.33;;;2.77;;
16199;SDS011;8207;52.494;4.654;2022-12-08T14:22:22;7.30;;;3.07;;
16199;SDS011;8207;52.494;4.654;2022-12-08T14:24:51;11.37;;;2.23;;
16199;SDS011;8207;52.494;4.654;2022-12-08T14:27:20;4.20;;;2.10;;
16199;SDS011;8207;52.494;4.654;2022-12-08T14:29:49;7.07;;;2.40;;
16199;SDS011;8207;52.494;4.654;2022-12-08T14:32:19;6.93;;;2.50;;
16199;SDS011;8207;52.494;4.654;2022-12-08T14:34:57;6.93;;;1.90;;
16199;SDS011;8207;52.494;4.654;2022-12-08T14:37:26;6.07;;;3.03;;
16199;SDS011;8207;52.494;4.654;2022-12-08T14:39:56;5.17;;;2.50;;
16199;SDS011;8207;52.494;4.654;2022-12-08T14:42:26;6.57;;;2.50;;
16199;SDS011;8207;52.494;4.654;2022-12-08T14:44:54;6.53;;;3.33;;
16199;SDS011;8207;52.494;4.654;2022-12-08T14:47:29;5.13;;;2.13;;
16199;SDS011;8207;52.494;4.654;2022-12-08T14:49:58;5.63;;;2.17;;
16199;SDS011;8207;52.494;4.654;2022-12-08T14:52:26;7.03;;;2.33;;
16199;SDS011;8207;52.494;4.654;2022-12-08T14:54:54;4.20;;;2.20;;
16199;SDS011;8207;52.494;4.654;2022-12-08T14:57:22;5.30;;;2.20;;
16199;SDS011;8207;52.494;4.654;2022-12-08T14:59:57;5.17;;;2.00;;
16199;SDS011;8207;52.494;4.654;2022-12-08T15:02:33;4.50;;;2.13;;
16199;SDS011;8207;52.494;4.654;2022-12-08T15:05:03;3.33;;;2.07;;
16199;SDS011;8207;52.494;4.654;2022-12-08T15:07:35;3.17;;;2.43;;
16199;SDS011;8207;52.494;4.654;2022-12-08T15:10:18;8.43;;;2.37;;
16199;SDS011;8207;52.494;4.654;2022-12-08T15:12:58;8.47;;;2.53;;
16199;SDS011;8207;52.494;4.654;2022-12-08T15:15:27;3.57;;;2.10;;
16199;SDS011;8207;52.494;4.654;2022-12-08T15:18:05;4.23;;;2.10;;
16199;SDS011;8207;52.494;4.654;2022-12-08T15:20:40;3.53;;;2.10;;
16199;SDS011;8207;52.494;4.654;2022-12-08T15:23:18;3.33;;;2.27;;
16199;SDS011;8207;52.494;4.654;2022-12-08T15:25:50;4.47;;;2.53;;
16199;SDS011;8207;52.494;4.654;2022-12-08T15:28:19;3.73;;;1.93;;
16199;SDS011;8207;52.494;4.654;2022-12-08T15:30:48;6.00;;;2.17;;
16199;SDS011;8207;52.494;4.654;2022-12-08T15:33:16;2.83;;;1.97;;
16199;SDS011;8207;52.494;4.654;2022-12-08T15:35:44;3.17;;;1.70;;
16199;SDS011;8207;52.494;4.654;2022-12-08T15:38:15;3.50;;;1.60;;
16199;SDS011;8207;52.494;4.654;2022-12-08T15:40:45;3.17;;;1.50;;